Time;durP1;ratioP1;P1;durP2;ratioP2;P2;SDS_P1;SDS_P2;PMS_P1;PMS_P2;Temp;Humidity;BMP_temperature;BMP_pressure;BME280_temperature;BME280_humidity;BME280_pressure;Samples;Min_cycle;Max_cycle;Signal;HPM_P1;HPM_P2
2022/07/15 00:02:03;;;;;;;;;;;;;;;;;;5036657;28;19913;-28
2022/07/15 00:04:29;;;;;;;;;;;;;;;;;;5036193;28;19921;-28
2022/07/15 00:06:55;;;;;;;;;;;;;;;;;;5036317;28;19924;-29
2022/07/15 00:10:13;;;;;;;;;;;;;;;;;;5036601;28;19913;-29
2022/07/15 00:12:06;;;;;;;;;;;;;;;;;;5036034;28;19917;-29
2022/07/15 00:14:32;;;;;;;;;;;;;;;;;;5036197;28;19915;-29
2022/07/15 00:16:58;;;;;;;;;;;;;;;;;;5036719;28;20313;-29
2022/07/15 00:19:24;;;;;;;;;;;;;;;;;;5035115;28;19996;-29
2022/07/15 00:21:50;;;;;;;;;;;;;;;;;;5035997;28;20000;-28
2022/07/15 00:24:16;;;;;;;;;;;;;;;;;;5036249;28;20295;-29
2022/07/15 00:26:42;;;;;;;;;;;;;;;;;;5035980;28;20055;-28
2022/07/15 00:29:09;;;;;;;;;;;;;;;;;;5036187;28;19967;-29
2022/07/15 00:31:35;;;;;;;;;;;;;;;;;;5035919;28;20003;-29
2022/07/15 00:34:01;;;;;;;;;;;;;;;;;;5035752;28;20063;-29
2022/07/15 00:36:27;;;;;;;;;;;;;;;;;;5036089;28;19925;-29
2022/07/15 00:38:53;;;;;;;;;;;;;;;;;;5035754;28;20374;-29
2022/07/15 00:41:19;;;;;;;;;;;;;;;;;;5036053;28;19944;-29
2022/07/15 00:43:45;;;;;;;;;;;;;;;;;;5035510;28;20351;-28
2022/07/15 00:46:11;;;;;;;;;;;;;;;;;;5035959;28;20008;-29
2022/07/15 00:48:37;;;;;;;;;;;;;;;;;;5035610;28;19960;-29
2022/07/15 00:51:04;;;;;;;;;;;;;;;;;;5035893;28;19917;-29
2022/07/15 00:53:29;;;;;;;;;;;;;;;;;;5035321;28;20003;-29
2022/07/15 00:55:55;;;;;;;;;;;;;;;;;;5035481;28;19932;-28
2022/07/15 00:58:23;;;;;;;;;;;;;;;;;;5035716;28;20344;-29
2022/07/15 01:00:49;;;;;;;;;;;;;;;;;;5035477;28;19909;-29
2022/07/15 01:03:15;;;;;;;;;;;;;;;;;;5035087;28;19928;-29
2022/07/15 01:05:41;;;;;;;;;;;;;;;;;;5035257;28;19921;-28
2022/07/15 01:08:08;;;;;;;;;;;;;;;;;;5034332;28;20050;-29
2022/07/15 01:10:34;;;;;;;;;;;;;;;;;;5035324;28;20003;-28
2022/07/15 01:13:02;;;;;;;;;;;;;;;;;;5035210;28;19988;-28
2022/07/15 01:15:28;;;;;;;;;;;;;;;;;;5035301;28;19909;-29
2022/07/15 01:17:54;;;;;;;;;;;;;;;;;;5034195;28;19955;-28
2022/07/15 01:20:20;;;;;;;;;;;;;;;;;;5035406;28;20316;-29
2022/07/15 01:22:47;;;;;;;;;;;;;;;;;;5035036;28;19917;-29
2022/07/15 01:25:14;;;;;;;;;;;;;;;;;;5035066;28;19914;-29
2022/07/15 01:27:41;;;;;;;;;;;;;;;;;;5035104;28;19913;-29
2022/07/15 01:30:07;;;;;;;;;;;;;;;;;;5035119;28;19913;-28
2022/07/15 01:32:33;;;;;;;;;;;;;;;;;;5034952;28;20012;-28
2022/07/15 01:34:59;;;;;;;;;;;;;;;;;;5035023;28;20413;-29
2022/07/15 01:37:25;;;;;;;;;;;;;;;;;;5035267;28;20356;-29
2022/07/15 01:39:51;;;;;;;;;;;;;;;;;;5034068;28;19971;-29
2022/07/15 01:42:17;;;;;;;;;;;;;;;;;;5034912;28;20040;-28
2022/07/15 01:44:43;;;;;;;;;;;;;;;;;;5035112;28;19923;-29
2022/07/15 01:47:09;;;;;;;;;;;;;;;;;;5035179;28;20255;-29
2022/07/15 01:49:35;;;;;;;;;;;;;;;;;;5034857;28;19909;-28
2022/07/15 01:52:00;;;;;;;;;;;;;;;;;;5034822;28;19948;-28
2022/07/15 01:54:26;;;;;;;;;;;;;;;;;;5034851;28;19957;-29
2022/07/15 01:56:53;;;;;;;;;;;;;;;;;;5034857;28;20008;-29
2022/07/15 01:59:19;;;;;;;;;;;;;;;;;;5034836;28;19913;-28
2022/07/15 02:01:45;;;;;;;;;;;;;;;;;;5034726;28;20330;-28
2022/07/15 02:04:11;;;;;;;;;;;;;;;;;;5034425;28;19936;-29
2022/07/15 02:06:37;;;;;;;;;;;;;;;;;;5038929;28;20336;-29
2022/07/15 02:09:03;;;;;;;;;;;;;;;;;;5038854;28;20362;-29
2022/07/15 02:11:29;;;;;;;;;;;;;;;;;;5038554;28;20000;-29
2022/07/15 02:13:58;;;;;;;;;;;;;;;;;;5038444;28;19913;-29
2022/07/15 02:16:24;;;;;;;;;;;;;;;;;;5038799;28;19939;-29
2022/07/15 02:18:50;;;;;;;;;;;;;;;;;;5037432;28;19913;-28
2022/07/15 02:21:16;;;;;;;;;;;;;;;;;;5038378;28;20344;-29
2022/07/15 02:23:42;;;;;;;;;;;;;;;;;;5038748;28;19974;-29
2022/07/15 02:26:08;;;;;;;;;;;;;;;;;;5038163;28;20360;-28
2022/07/15 02:28:34;;;;;;;;;;;;;;;;;;5038462;28;19913;-29
2022/07/15 02:31:00;;;;;;;;;;;;;;;;;;5037212;28;19944;-29
2022/07/15 02:33:26;;;;;;;;;;;;;;;;;;5037142;28;20370;-29
2022/07/15 02:35:52;;;;;;;;;;;;;;;;;;5038093;28;19948;-28
2022/07/15 02:38:19;;;;;;;;;;;;;;;;;;5038316;28;19921;-29
2022/07/15 02:40:45;;;;;;;;;;;;;;;;;;5037169;28;19923;-29
2022/07/15 02:43:11;;;;;;;;;;;;;;;;;;5037876;28;19964;-28
2022/07/15 02:45:37;;;;;;;;;;;;;;;;;;5037899;28;19956;-28
2022/07/15 02:48:03;;;;;;;;;;;;;;;;;;5036895;28;19924;-28
2022/07/15 02:50:29;;;;;;;;;;;;;;;;;;5037747;28;19909;-29
2022/07/15 02:52:55;;;;;;;;;;;;;;;;;;5037727;28;19924;-29
2022/07/15 02:55:21;;;;;;;;;;;;;;;;;;5037741;28;20256;-29
2022/07/15 02:57:47;;;;;;;;;;;;;;;;;;5037670;28;19913;-28
2022/07/15 03:00:13;;;;;;;;;;;;;;;;;;5037679;28;19936;-29
2022/07/15 03:02:39;;;;;;;;;;;;;;;;;;5037641;28;19913;-28
2022/07/15 03:05:05;;;;;;;;;;;;;;;;;;5037509;28;19917;-28
2022/07/15 03:07:31;;;;;;;;;;;;;;;;;;5037546;28;19924;-39
2022/07/15 03:09:57;;;;;;;;;;;;;;;;;;5037474;28;19913;-28
2022/07/15 03:12:23;;;;;;;;;;;;;;;;;;5037398;28;20336;-29
2022/07/15 03:14:49;;;;;;;;;;;;;;;;;;5037199;28;19913;-29
2022/07/15 03:17:15;;;;;;;;;;;;;;;;;;5035306;28;19924;-29
2022/07/15 03:19:41;;;;;;;;;;;;;;;;;;5037279;28;20340;-29
2022/07/15 03:22:07;;;;;;;;;;;;;;;;;;5036160;28;19924;-29
2022/07/15 03:24:33;;;;;;;;;;;;;;;;;;5037686;28;19913;-28
2022/07/15 03:26:59;;;;;;;;;;;;;;;;;;5037168;28;20264;-28
2022/07/15 03:29:26;;;;;;;;;;;;;;;;;;5037371;28;19910;-28
2022/07/15 03:31:52;;;;;;;;;;;;;;;;;;5037009;28;20422;-29
2022/07/15 03:34:18;;;;;;;;;;;;;;;;;;5037270;28;19909;-29
2022/07/15 03:36:44;;;;;;;;;;;;;;;;;;5036974;28;20248;-29
2022/07/15 03:39:10;;;;;;;;;;;;;;;;;;5036862;28;19913;-29
2022/07/15 03:41:36;;;;;;;;;;;;;;;;;;5036823;28;20312;-29
2022/07/15 03:44:02;;;;;;;;;;;;;;;;;;5036625;28;19952;-29
2022/07/15 03:46:29;;;;;;;;;;;;;;;;;;5036989;28;19959;-29
2022/07/15 03:48:55;;;;;;;;;;;;;;;;;;5036689;28;20226;-29
2022/07/15 03:51:21;;;;;;;;;;;;;;;;;;5036921;28;19917;-29
2022/07/15 03:53:47;;;;;;;;;;;;;;;;;;5036469;28;19913;-29
2022/07/15 03:56:13;;;;;;;;;;;;;;;;;;5036780;28;19913;-29
2022/07/15 03:58:39;;;;;;;;;;;;;;;;;;5036465;28;19967;-29
2022/07/15 04:01:05;;;;;;;;;;;;;;;;;;5036393;28;19917;-29
2022/07/15 04:03:33;;;;;;;;;;;;;;;;;;5036168;28;20352;-28
2022/07/15 04:05:59;;;;;;;;;;;;;;;;;;5036617;28;19917;-29
2022/07/15 04:08:25;;;;;;;;;;;;;;;;;;5036607;28;19913;-29
2022/07/15 04:10:51;;;;;;;;;;;;;;;;;;5036297;28;19982;-29
2022/07/15 04:13:18;;;;;;;;;;;;;;;;;;5036177;28;19917;-28
2022/07/15 04:15:44;;;;;;;;;;;;;;;;;;5036046;28;19921;-28
2022/07/15 04:18:10;;;;;;;;;;;;;;;;;;5035965;28;19917;-29
2022/07/15 04:20:36;;;;;;;;;;;;;;;;;;5036394;28;19923;-29
2022/07/15 04:23:02;;;;;;;;;;;;;;;;;;5035966;28;19913;-29
2022/07/15 04:25:28;;;;;;;;;;;;;;;;;;5035898;28;19925;-29
2022/07/15 04:27:54;;;;;;;;;;;;;;;;;;5035512;28;19971;-29
2022/07/15 04:30:20;;;;;;;;;;;;;;;;;;5034742;28;20394;-28
2022/07/15 04:32:46;;;;;;;;;;;;;;;;;;5035647;28;19951;-29
2022/07/15 04:35:12;;;;;;;;;;;;;;;;;;5035864;28;19909;-28
2022/07/15 04:37:38;;;;;;;;;;;;;;;;;;5035556;28;20304;-28
2022/07/15 04:40:07;;;;;;;;;;;;;;;;;;5035881;28;19916;-29
2022/07/15 04:42:33;;;;;;;;;;;;;;;;;;5035611;28;19992;-29
2022/07/15 04:44:59;;;;;;;;;;;;;;;;;;5035842;28;20370;-29
2022/07/15 04:47:24;;;;;;;;;;;;;;;;;;5035461;28;19913;-29
2022/07/15 04:52:35;;;;;;;;;;;;;;;;;;5035767;28;19963;-29
2022/07/15 04:55:02;;;;;;;;;;;;;;;;;;5035375;28;19913;-28
2022/07/15 04:57:28;;;;;;;;;;;;;;;;;;5035397;28;19913;-29
2022/07/15 04:59:54;;;;;;;;;;;;;;;;;;5035388;28;19919;-29
2022/07/15 05:02:20;;;;;;;;;;;;;;;;;;5035183;28;19971;-29
2022/07/15 05:04:47;;;;;;;;;;;;;;;;;;5034948;28;20095;-28
2022/07/15 05:07:12;;;;;;;;;;;;;;;;;;5035529;28;19920;-29
2022/07/15 05:09:38;;;;;;;;;;;;;;;;;;5034300;28;19917;-29
2022/07/15 05:12:05;;;;;;;;;;;;;;;;;;5035033;28;20263;-29
2022/07/15 05:14:31;;;;;;;;;;;;;;;;;;5035134;28;20263;-29
2022/07/15 05:16:57;;;;;;;;;;;;;;;;;;5035153;28;19979;-29
2022/07/15 05:19:23;;;;;;;;;;;;;;;;;;5033944;28;20287;-29
2022/07/15 05:21:49;;;;;;;;;;;;;;;;;;5035197;28;19909;-29
2022/07/15 05:24:15;;;;;;;;;;;;;;;;;;5034891;28;20338;-29
2022/07/15 05:26:41;;;;;;;;;;;;;;;;;;5035669;28;19922;-29
2022/07/15 05:29:07;;;;;;;;;;;;;;;;;;5035012;28;19913;-29
2022/07/15 05:31:33;;;;;;;;;;;;;;;;;;5035018;28;19970;-29
2022/07/15 05:33:59;;;;;;;;;;;;;;;;;;5034835;28;19996;-28
2022/07/15 05:36:25;;;;;;;;;;;;;;;;;;5035445;28;20283;-29
2022/07/15 05:38:52;;;;;;;;;;;;;;;;;;5035248;28;19921;-28
2022/07/15 05:41:18;;;;;;;;;;;;;;;;;;5039137;28;19917;-29
2022/07/15 05:43:44;;;;;;;;;;;;;;;;;;5038995;28;19913;-29
2022/07/15 05:46:10;;;;;;;;;;;;;;;;;;5038896;28;19917;-29
2022/07/15 05:48:39;;;;;;;;;;;;;;;;;;5038847;28;20233;-29
2022/07/15 05:51:05;;;;;;;;;;;;;;;;;;5038864;28;20279;-29
2022/07/15 05:53:31;;;;;;;;;;;;;;;;;;5038695;28;20376;-29
2022/07/15 05:55:57;;;;;;;;;;;;;;;;;;5038906;28;19913;-29
2022/07/15 05:58:23;;;;;;;;;;;;;;;;;;5038649;28;20313;-29
2022/07/15 06:00:49;;;;;;;;;;;;;;;;;;5037920;28;19920;-29
2022/07/15 06:03:15;;;;;;;;;;;;;;;;;;5038204;28;19928;-29
2022/07/15 06:05:42;;;;;;;;;;;;;;;;;;5038373;28;19924;-29
2022/07/15 06:08:08;;;;;;;;;;;;;;;;;;5038384;28;20359;-28
2022/07/15 06:10:34;;;;;;;;;;;;;;;;;;5038663;28;19945;-29
2022/07/15 06:13:00;;;;;;;;;;;;;;;;;;5038274;28;19913;-29
2022/07/15 06:15:26;;;;;;;;;;;;;;;;;;5038347;28;19923;-29
2022/07/15 06:17:53;;;;;;;;;;;;;;;;;;5038205;28;19913;-29
2022/07/15 06:20:19;;;;;;;;;;;;;;;;;;5038258;28;19909;-29
2022/07/15 06:22:45;;;;;;;;;;;;;;;;;;5038091;28;19959;-29
2022/07/15 06:25:11;;;;;;;;;;;;;;;;;;5038079;28;19964;-28
2022/07/15 06:27:37;;;;;;;;;;;;;;;;;;5038065;28;19913;-28
2022/07/15 06:30:03;;;;;;;;;;;;;;;;;;5038154;28;19909;-29
2022/07/15 06:32:29;;;;;;;;;;;;;;;;;;5038093;28;20232;-29
2022/07/15 06:34:55;;;;;;;;;;;;;;;;;;5037884;28;20046;-29
2022/07/15 06:37:21;;;;;;;;;;;;;;;;;;5037835;28;19956;-29
2022/07/15 06:39:47;;;;;;;;;;;;;;;;;;5037907;28;19951;-29
2022/07/15 06:42:13;;;;;;;;;;;;;;;;;;5038037;28;19924;-29
2022/07/15 06:44:39;;;;;;;;;;;;;;;;;;5037643;28;19913;-30
2022/07/15 06:47:06;;;;;;;;;;;;;;;;;;5037798;28;20340;-29
2022/07/15 06:49:32;;;;;;;;;;;;;;;;;;5037529;28;19916;-29
2022/07/15 06:51:58;;;;;;;;;;;;;;;;;;5037502;28;20003;-28
2022/07/15 06:54:24;;;;;;;;;;;;;;;;;;5037573;28;19909;-29
2022/07/15 06:56:50;;;;;;;;;;;;;;;;;;5037725;28;19971;-29
2022/07/15 06:59:17;;;;;;;;;;;;;;;;;;5037562;28;19909;-28
2022/07/15 07:01:44;;;;;;;;;;;;;;;;;;5037523;28;19913;-29
2022/07/15 07:04:10;;;;;;;;;;;;;;;;;;5037179;28;19924;-29
2022/07/15 07:06:35;;;;;;;;;;;;;;;;;;5037387;28;19913;-29
2022/07/15 07:09:01;;;;;;;;;;;;;;;;;;5037419;28;20260;-29
2022/07/15 07:11:28;;;;;;;;;;;;;;;;;;5037275;28;19913;-29
2022/07/15 07:13:54;;;;;;;;;;;;;;;;;;5037232;28;19995;-29
2022/07/15 07:16:20;;;;;;;;;;;;;;;;;;5036169;28;19913;-29
2022/07/15 07:18:47;;;;;;;;;;;;;;;;;;5037057;28;19909;-29
2022/07/15 07:21:13;;;;;;;;;;;;;;;;;;5036957;28;19979;-29
2022/07/15 07:23:39;;;;;;;;;;;;;;;;;;5036819;28;20311;-29
2022/07/15 07:26:05;;;;;;;;;;;;;;;;;;5036846;28;19963;-29
2022/07/15 07:28:32;;;;;;;;;;;;;;;;;;5036927;28;19917;-29
2022/07/15 07:30:58;;;;;;;;;;;;;;;;;;5036701;28;20332;-29
2022/07/15 07:33:24;;;;;;;;;;;;;;;;;;5036595;28;19917;-30
2022/07/15 07:35:51;;;;;;;;;;;;;;;;;;5037125;28;19910;-30
2022/07/15 07:38:17;;;;;;;;;;;;;;;;;;5036823;28;19914;-30
2022/07/15 07:40:43;;;;;;;;;;;;;;;;;;5036735;28;19916;-30
2022/07/15 07:43:09;;;;;;;;;;;;;;;;;;5036813;28;19920;-29
2022/07/15 07:45:35;;;;;;;;;;;;;;;;;;5035471;28;19917;-29
2022/07/15 07:48:01;;;;;;;;;;;;;;;;;;5036731;28;19924;-29
2022/07/15 07:50:27;;;;;;;;;;;;;;;;;;5036510;28;19925;-29
2022/07/15 07:52:54;;;;;;;;;;;;;;;;;;5036338;28;19920;-29
2022/07/15 07:55:20;;;;;;;;;;;;;;;;;;5036381;28;19917;-30
2022/07/15 07:57:46;;;;;;;;;;;;;;;;;;5036201;28;19913;-29
2022/07/15 08:00:12;;;;;;;;;;;;;;;;;;5036235;28;20340;-30
2022/07/15 08:02:38;;;;;;;;;;;;;;;;;;5035197;28;19924;-30
2022/07/15 08:05:04;;;;;;;;;;;;;;;;;;5036292;28;19921;-30
2022/07/15 08:07:30;;;;;;;;;;;;;;;;;;5036073;28;20000;-30
2022/07/15 08:09:57;;;;;;;;;;;;;;;;;;5036121;28;19951;-30
2022/07/15 08:12:23;;;;;;;;;;;;;;;;;;5036140;28;19958;-30
2022/07/15 08:14:50;;;;;;;;;;;;;;;;;;5035953;28;19917;-30
2022/07/15 08:17:16;;;;;;;;;;;;;;;;;;5035959;28;20022;-30
2022/07/15 08:19:42;;;;;;;;;;;;;;;;;;5036100;28;19913;-29
2022/07/15 08:22:08;;;;;;;;;;;;;;;;;;5035738;28;19965;-30
2022/07/15 08:24:34;;;;;;;;;;;;;;;;;;5035693;28;19913;-30
2022/07/15 08:27:01;;;;;;;;;;;;;;;;;;5035529;28;19924;-30
2022/07/15 08:29:27;;;;;;;;;;;;;;;;;;5034657;28;20010;-30
2022/07/15 08:31:54;;;;;;;;;;;;;;;;;;5034558;28;19924;-29
2022/07/15 08:34:20;;;;;;;;;;;;;;;;;;5035870;28;19915;-30
2022/07/15 08:36:46;;;;;;;;;;;;;;;;;;5035275;28;19913;-29
2022/07/15 08:39:13;;;;;;;;;;;;;;;;;;5035648;28;19910;-29
2022/07/15 08:41:39;;;;;;;;;;;;;;;;;;5035507;28;19917;-30
2022/07/15 08:44:05;;;;;;;;;;;;;;;;;;5035264;28;20355;-29
2022/07/15 08:46:31;;;;;;;;;;;;;;;;;;5035452;28;19947;-30
2022/07/15 08:48:57;;;;;;;;;;;;;;;;;;5035271;28;20298;-30
2022/07/15 08:51:24;;;;;;;;;;;;;;;;;;5035096;28;19913;-29
2022/07/15 08:53:51;;;;;;;;;;;;;;;;;;5035114;28;19913;-30
2022/07/15 08:56:17;;;;;;;;;;;;;;;;;;5035489;28;19909;-29
2022/07/15 08:58:43;;;;;;;;;;;;;;;;;;5035083;28;19924;-29
2022/07/15 09:01:09;;;;;;;;;;;;;;;;;;5035128;28;19913;-29
2022/07/15 09:03:35;;;;;;;;;;;;;;;;;;5034605;28;19924;-29
2022/07/15 09:06:01;;;;;;;;;;;;;;;;;;5034727;28;19928;-29
2022/07/15 09:08:27;;;;;;;;;;;;;;;;;;5035052;28;20263;-29
2022/07/15 09:10:53;;;;;;;;;;;;;;;;;;5033983;28;19909;-29
2022/07/15 09:13:19;;;;;;;;;;;;;;;;;;5034848;28;19912;-30
2022/07/15 09:15:46;;;;;;;;;;;;;;;;;;5034915;28;19924;-29
2022/07/15 09:18:12;;;;;;;;;;;;;;;;;;5034976;28;19921;-29
2022/07/15 09:20:38;;;;;;;;;;;;;;;;;;5034904;28;20320;-29
2022/07/15 09:23:04;;;;;;;;;;;;;;;;;;5034960;28;19913;-29
2022/07/15 09:25:33;;;;;;;;;;;;;;;;;;5034930;28;20251;-29
2022/07/15 09:28:01;;;;;;;;;;;;;;;;;;5033576;28;19917;-30
2022/07/15 09:36:02;;;;;;;;;;;;;;;;;;5034841;28;19924;-29
2022/07/15 09:38:28;;;;;;;;;;;;;;;;;;5033491;28;20289;-29
2022/07/15 09:40:55;;;;;;;;;;;;;;;;;;5034792;28;19913;-29
2022/07/15 09:43:21;;;;;;;;;;;;;;;;;;5034476;28;19913;-29
2022/07/15 09:45:46;;;;;;;;;;;;;;;;;;5034559;28;20293;-30
2022/07/15 09:48:14;;;;;;;;;;;;;;;;;;5034880;28;19909;-30
2022/07/15 09:50:41;;;;;;;;;;;;;;;;;;5034531;28;19992;-30
2022/07/15 09:53:07;;;;;;;;;;;;;;;;;;5034868;28;19920;-29
2022/07/15 09:55:34;;;;;;;;;;;;;;;;;;5034323;28;19999;-29
2022/07/15 09:58:00;;;;;;;;;;;;;;;;;;5033446;28;20256;-29
2022/07/15 10:00:26;;;;;;;;;;;;;;;;;;5034729;28;20255;-29
2022/07/15 10:02:52;;;;;;;;;;;;;;;;;;5034130;28;19981;-29
2022/07/15 10:05:18;;;;;;;;;;;;;;;;;;5034819;28;19917;-29
2022/07/15 10:07:44;;;;;;;;;;;;;;;;;;5034407;28;20280;-29
2022/07/15 10:10:11;;;;;;;;;;;;;;;;;;5033317;28;19996;-29
2022/07/15 10:12:37;;;;;;;;;;;;;;;;;;5033117;28;20031;-29
2022/07/15 10:15:03;;;;;;;;;;;;;;;;;;5034495;28;19909;-29
2022/07/15 10:17:29;;;;;;;;;;;;;;;;;;5034423;28;19924;-29
2022/07/15 10:19:55;;;;;;;;;;;;;;;;;;5034147;28;19909;-29
2022/07/15 10:22:21;;;;;;;;;;;;;;;;;;5034066;28;20340;-30
2022/07/15 10:24:48;;;;;;;;;;;;;;;;;;5033434;28;20340;-30
2022/07/15 10:27:14;;;;;;;;;;;;;;;;;;5036721;28;19940;-30
2022/07/15 10:29:40;;;;;;;;;;;;;;;;;;5037697;28;19996;-29
2022/07/15 10:32:06;;;;;;;;;;;;;;;;;;5037992;28;19955;-29
2022/07/15 10:34:32;;;;;;;;;;;;;;;;;;5037948;28;20020;-29
2022/07/15 10:36:58;;;;;;;;;;;;;;;;;;5037732;28;19940;-29
2022/07/15 10:39:26;;;;;;;;;;;;;;;;;;5037654;28;19913;-29
2022/07/15 10:41:52;;;;;;;;;;;;;;;;;;5037703;28;19940;-30
2022/07/15 10:47:08;;;;;;;;;;;;;;;;;;5037601;28;20264;-29
2022/07/15 10:49:34;;;;;;;;;;;;;;;;;;5037411;28;19913;-30
2022/07/15 10:52:00;;;;;;;;;;;;;;;;;;5037960;28;19944;-29
2022/07/15 10:54:26;;;;;;;;;;;;;;;;;;5037649;28;19913;-28
2022/07/15 10:56:52;;;;;;;;;;;;;;;;;;5037900;28;19913;-29
2022/07/15 10:59:23;;;;;;;;;;;;;;;;;;5037570;28;19921;-29
2022/07/15 11:01:49;;;;;;;;;;;;;;;;;;5037571;28;19936;-29
2022/07/15 11:04:15;;;;;;;;;;;;;;;;;;5036371;28;19917;-29
2022/07/15 11:06:41;;;;;;;;;;;;;;;;;;5037704;28;19924;-30
2022/07/15 11:09:07;;;;;;;;;;;;;;;;;;5037466;28;19909;-28
2022/07/15 11:11:33;;;;;;;;;;;;;;;;;;5037468;28;19913;-29
2022/07/15 11:13:59;;;;;;;;;;;;;;;;;;5037301;28;19921;-29
2022/07/15 11:16:25;;;;;;;;;;;;;;;;;;5037519;28;19913;-29
2022/07/15 11:18:51;;;;;;;;;;;;;;;;;;5037240;28;19917;-29
2022/07/15 11:21:17;;;;;;;;;;;;;;;;;;5037402;28;19917;-29
2022/07/15 11:23:43;;;;;;;;;;;;;;;;;;5036954;28;19971;-29
2022/07/15 11:26:09;;;;;;;;;;;;;;;;;;5036825;28;19917;-29
2022/07/15 11:28:35;;;;;;;;;;;;;;;;;;5036122;28;19909;-29
2022/07/15 11:31:02;;;;;;;;;;;;;;;;;;5036981;28;20255;-29
2022/07/15 11:33:29;;;;;;;;;;;;;;;;;;5037171;28;19909;-29
2022/07/15 11:35:56;;;;;;;;;;;;;;;;;;5036536;28;19909;-29
2022/07/15 11:38:23;;;;;;;;;;;;;;;;;;5035885;28;19924;-28
2022/07/15 11:46:18;;;;;;;;;;;;;;;;;;5036930;28;19975;-28
2022/07/15 11:48:44;;;;;;;;;;;;;;;;;;5036572;28;19912;-28
2022/07/15 11:51:10;;;;;;;;;;;;;;;;;;5036558;28;19913;-28
2022/07/15 11:53:36;;;;;;;;;;;;;;;;;;5036473;28;20006;-28
2022/07/15 11:56:02;;;;;;;;;;;;;;;;;;5036620;28;20347;-28
2022/07/15 11:58:28;;;;;;;;;;;;;;;;;;5036364;28;19996;-29
2022/07/15 12:00:54;;;;;;;;;;;;;;;;;;5036396;28;19921;-30
2022/07/15 12:03:24;;;;;;;;;;;;;;;;;;5035956;28;19913;-27
2022/07/15 12:05:51;;;;;;;;;;;;;;;;;;5036495;28;20279;-30
2022/07/15 12:08:18;;;;;;;;;;;;;;;;;;5035285;28;19920;-30
2022/07/15 12:10:44;;;;;;;;;;;;;;;;;;5036424;28;19913;-28
2022/07/15 12:13:10;;;;;;;;;;;;;;;;;;5036066;28;20283;-28
2022/07/15 12:15:36;;;;;;;;;;;;;;;;;;5036005;28;19909;-28
2022/07/15 12:18:01;;;;;;;;;;;;;;;;;;5035031;28;19927;-28
2022/07/15 12:20:28;;;;;;;;;;;;;;;;;;5036357;28;19909;-28
2022/07/15 12:22:54;;;;;;;;;;;;;;;;;;5035775;28;19924;-28
2022/07/15 12:25:20;;;;;;;;;;;;;;;;;;5035897;28;19913;-28
2022/07/15 12:27:46;;;;;;;;;;;;;;;;;;5036053;28;19913;-29
2022/07/15 12:30:12;;;;;;;;;;;;;;;;;;5034766;28;19935;-28
2022/07/15 12:32:38;;;;;;;;;;;;;;;;;;5035681;28;19913;-28
2022/07/15 12:35:04;;;;;;;;;;;;;;;;;;5036023;28;19909;-28
2022/07/15 12:37:30;;;;;;;;;;;;;;;;;;5035683;28;19944;-29
2022/07/15 12:39:56;;;;;;;;;;;;;;;;;;5035691;28;19948;-28
2022/07/15 12:42:22;;;;;;;;;;;;;;;;;;5035737;28;19913;-28
2022/07/15 12:44:48;;;;;;;;;;;;;;;;;;5034342;28;19924;-28
2022/07/15 12:47:14;;;;;;;;;;;;;;;;;;5035410;28;19913;-28
2022/07/15 12:49:41;;;;;;;;;;;;;;;;;;5035152;28;19915;-28
2022/07/15 12:52:06;;;;;;;;;;;;;;;;;;5035632;28;19913;-28
2022/07/15 12:54:33;;;;;;;;;;;;;;;;;;5035370;28;19909;-28
2022/07/15 12:56:59;;;;;;;;;;;;;;;;;;5035567;28;19913;-28
2022/07/15 12:59:25;;;;;;;;;;;;;;;;;;5034383;28;20340;-28
2022/07/15 13:01:51;;;;;;;;;;;;;;;;;;5035120;28;19917;-28
2022/07/15 13:04:17;;;;;;;;;;;;;;;;;;5034985;28;20210;-28
2022/07/15 13:06:43;;;;;;;;;;;;;;;;;;5035143;28;19916;-28
2022/07/15 13:09:09;;;;;;;;;;;;;;;;;;5034269;28;19924;-29
2022/07/15 13:11:35;;;;;;;;;;;;;;;;;;5035070;28;19913;-28
2022/07/15 13:14:01;;;;;;;;;;;;;;;;;;5035179;28;19962;-29
2022/07/15 13:16:27;;;;;;;;;;;;;;;;;;5035080;28;19920;-29
2022/07/15 13:18:53;;;;;;;;;;;;;;;;;;5035055;28;20344;-28
2022/07/15 13:21:19;;;;;;;;;;;;;;;;;;5035223;28;19913;-29
2022/07/15 13:23:45;;;;;;;;;;;;;;;;;;5033727;28;20336;-29
2022/07/15 13:26:11;;;;;;;;;;;;;;;;;;5035064;28;19924;-29
2022/07/15 13:28:37;;;;;;;;;;;;;;;;;;5035697;28;19917;-29
2022/07/15 13:31:03;;;;;;;;;;;;;;;;;;5035128;28;19974;-29
2022/07/15 13:33:31;;;;;;;;;;;;;;;;;;5034766;28;19913;-29
2022/07/15 13:35:57;;;;;;;;;;;;;;;;;;5034907;28;19920;-29
2022/07/15 13:38:33;;;;;;;;;;;;;;;;;;5035138;28;19913;-29
2022/07/15 13:41:00;;;;;;;;;;;;;;;;;;5034811;28;19909;-28
2022/07/15 13:43:26;;;;;;;;;;;;;;;;;;5034998;28;19913;-29
2022/07/15 13:45:52;;;;;;;;;;;;;;;;;;5035188;28;19918;-28
2022/07/15 13:48:18;;;;;;;;;;;;;;;;;;5035056;28;20060;-29
2022/07/15 13:53:29;;;;;;;;;;;;;;;;;;5034736;28;20056;-28
2022/07/15 13:55:55;;;;;;;;;;;;;;;;;;5034665;28;19912;-28
2022/07/15 13:58:21;;;;;;;;;;;;;;;;;;5034677;28;19913;-30
2022/07/15 14:00:47;;;;;;;;;;;;;;;;;;5036683;28;19952;-30
2022/07/15 14:03:13;;;;;;;;;;;;;;;;;;5038271;28;19924;-29
2022/07/15 14:05:39;;;;;;;;;;;;;;;;;;5038700;28;19924;-28
2022/07/15 14:08:05;;;;;;;;;;;;;;;;;;5038407;28;19913;-28
2022/07/15 14:10:31;;;;;;;;;;;;;;;;;;5038484;28;20255;-28
2022/07/15 14:12:57;;;;;;;;;;;;;;;;;;5037411;28;19909;-29
2022/07/15 14:15:23;;;;;;;;;;;;;;;;;;5038600;28;20331;-28
2022/07/15 14:17:49;;;;;;;;;;;;;;;;;;5038310;28;19932;-30
2022/07/15 14:20:16;;;;;;;;;;;;;;;;;;5038334;28;19910;-28
2022/07/15 14:22:42;;;;;;;;;;;;;;;;;;5038232;28;19921;-29
2022/07/15 14:25:08;;;;;;;;;;;;;;;;;;5038500;28;19962;-29
2022/07/15 14:27:34;;;;;;;;;;;;;;;;;;5038195;28;19974;-29
2022/07/15 14:30:00;;;;;;;;;;;;;;;;;;5038392;28;20352;-29
2022/07/15 14:32:26;;;;;;;;;;;;;;;;;;5038022;28;19920;-29
2022/07/15 14:34:53;;;;;;;;;;;;;;;;;;5038125;28;19920;-29
2022/07/15 14:37:19;;;;;;;;;;;;;;;;;;5038322;28;20240;-29
2022/07/15 14:39:45;;;;;;;;;;;;;;;;;;5038045;28;19915;-29
2022/07/15 14:42:11;;;;;;;;;;;;;;;;;;5037848;28;19913;-28
2022/07/15 14:44:37;;;;;;;;;;;;;;;;;;5037785;28;20051;-29
2022/07/15 14:47:03;;;;;;;;;;;;;;;;;;5037818;28;19917;-29
2022/07/15 14:49:30;;;;;;;;;;;;;;;;;;5037818;28;19924;-29
2022/07/15 14:51:56;;;;;;;;;;;;;;;;;;5037953;28;20323;-29
2022/07/15 14:54:22;;;;;;;;;;;;;;;;;;5037672;28;19916;-29
2022/07/15 14:56:48;;;;;;;;;;;;;;;;;;5037888;28;19917;-28
2022/07/15 14:59:14;;;;;;;;;;;;;;;;;;5037692;28;20364;-29
2022/07/15 15:01:40;;;;;;;;;;;;;;;;;;5037817;28;19967;-29
2022/07/15 15:04:06;;;;;;;;;;;;;;;;;;5037131;28;19933;-28
2022/07/15 15:06:32;;;;;;;;;;;;;;;;;;5037679;28;20225;-28
2022/07/15 15:08:59;;;;;;;;;;;;;;;;;;5037391;28;19971;-29
2022/07/15 15:11:25;;;;;;;;;;;;;;;;;;5037159;28;19917;-28
2022/07/15 15:13:51;;;;;;;;;;;;;;;;;;5037282;28;19913;-29
2022/07/15 15:16:17;;;;;;;;;;;;;;;;;;5037548;28;19924;-29
2022/07/15 15:18:43;;;;;;;;;;;;;;;;;;5037257;28;20258;-29
2022/07/15 15:21:09;;;;;;;;;;;;;;;;;;5037294;28;19917;-28
2022/07/15 15:23:35;;;;;;;;;;;;;;;;;;5037146;28;19909;-29
2022/07/15 15:28:46;;;;;;;;;;;;;;;;;;5037205;28;19920;-28
2022/07/15 15:31:12;;;;;;;;;;;;;;;;;;5037076;28;19913;-29
2022/07/15 15:33:38;;;;;;;;;;;;;;;;;;5036938;28;19909;-28
2022/07/15 15:36:04;;;;;;;;;;;;;;;;;;5037196;28;19913;-29
2022/07/15 15:38:30;;;;;;;;;;;;;;;;;;5036838;28;19948;-28
2022/07/15 15:40:56;;;;;;;;;;;;;;;;;;5036903;28;19909;-29
2022/07/15 15:43:22;;;;;;;;;;;;;;;;;;5036709;28;19924;-28
2022/07/15 15:45:48;;;;;;;;;;;;;;;;;;5036655;28;19917;-28
2022/07/15 15:48:14;;;;;;;;;;;;;;;;;;5036296;28;19936;-29
2022/07/15 15:50:40;;;;;;;;;;;;;;;;;;5036605;28;19909;-29
2022/07/15 15:53:06;;;;;;;;;;;;;;;;;;5036477;28;19913;-29
2022/07/15 15:55:32;;;;;;;;;;;;;;;;;;5036914;28;19909;-28
2022/07/15 15:57:58;;;;;;;;;;;;;;;;;;5036556;28;20034;-29
2022/07/15 16:00:24;;;;;;;;;;;;;;;;;;5037056;28;19913;-29
2022/07/15 16:02:50;;;;;;;;;;;;;;;;;;5038068;28;19939;-29
2022/07/15 16:05:16;;;;;;;;;;;;;;;;;;5038031;28;19921;-28
2022/07/15 16:07:42;;;;;;;;;;;;;;;;;;5036522;28;19992;-28
2022/07/15 16:10:08;;;;;;;;;;;;;;;;;;5036488;28;19951;-29
2022/07/15 16:12:34;;;;;;;;;;;;;;;;;;5035118;28;19971;-29
2022/07/15 16:15:00;;;;;;;;;;;;;;;;;;5036155;28;19909;-29
2022/07/15 16:17:26;;;;;;;;;;;;;;;;;;5036039;28;20000;-29
2022/07/15 16:19:52;;;;;;;;;;;;;;;;;;5035099;28;19921;-28
2022/07/15 16:25:03;;;;;;;;;;;;;;;;;;5035985;28;19979;-29
2022/07/15 16:27:29;;;;;;;;;;;;;;;;;;5035931;28;19913;-29
2022/07/15 16:29:55;;;;;;;;;;;;;;;;;;5035913;28;19952;-29
2022/07/15 16:32:21;;;;;;;;;;;;;;;;;;5035745;28;19935;-28
2022/07/15 16:34:47;;;;;;;;;;;;;;;;;;5035735;28;19909;-29
2022/07/15 16:37:13;;;;;;;;;;;;;;;;;;5035736;28;19924;-29
2022/07/15 16:39:39;;;;;;;;;;;;;;;;;;5035692;28;19914;-29
2022/07/15 16:42:06;;;;;;;;;;;;;;;;;;5035573;28;20001;-29
2022/07/15 16:44:32;;;;;;;;;;;;;;;;;;5035457;28;19917;-29
2022/07/15 16:46:58;;;;;;;;;;;;;;;;;;5035852;28;19966;-28
2022/07/15 16:49:24;;;;;;;;;;;;;;;;;;5035513;28;19920;-29
2022/07/15 16:51:50;;;;;;;;;;;;;;;;;;5035709;28;19913;-29
2022/07/15 16:54:16;;;;;;;;;;;;;;;;;;5035761;28;19910;-29
2022/07/15 16:56:42;;;;;;;;;;;;;;;;;;5035347;28;19971;-28
2022/07/15 16:59:08;;;;;;;;;;;;;;;;;;5035322;28;19909;-28
2022/07/15 17:01:34;;;;;;;;;;;;;;;;;;5034296;28;20355;-28
2022/07/15 17:04:00;;;;;;;;;;;;;;;;;;5034922;28;19959;-29